createdAt,value
2018-11-06T00:01:27.241Z,13.88
2018-11-06T00:04:03.350Z,15.48
2018-11-06T00:06:35.422Z,15.48
2018-11-06T00:09:07.741Z,15.90
2018-11-06T00:11:39.780Z,15.63
2018-11-06T00:14:11.845Z,13.35
2018-11-06T00:16:43.915Z,16.45
2018-11-06T00:19:16.008Z,15.75
2018-11-06T00:21:48.094Z,15.15
2018-11-06T00:24:20.146Z,17.27
2018-11-06T00:26:52.200Z,16.32
2018-11-06T00:29:24.199Z,16.25
2018-11-06T00:31:56.469Z,15.90
2018-11-06T00:34:28.493Z,16.60
2018-11-06T00:37:00.587Z,16.80
2018-11-06T00:39:32.607Z,16.12
2018-11-06T00:42:04.772Z,16.30
2018-11-06T00:44:36.967Z,16.50
2018-11-06T00:47:09.019Z,15.10
2018-11-06T00:49:41.045Z,15.98
2018-11-06T00:52:13.084Z,16.45
2018-11-06T00:54:45.113Z,16.80
2018-11-06T00:57:17.176Z,16.05
2018-11-06T00:59:49.718Z,17.05
2018-11-06T01:02:22.284Z,18.30
2018-11-06T01:04:54.440Z,15.93
2018-11-06T01:07:27.426Z,16.42
2018-11-06T01:09:59.466Z,15.93
2018-11-06T01:12:31.565Z,15.55
2018-11-06T01:15:03.978Z,14.58
2018-11-06T01:17:36.024Z,15.70
2018-11-06T01:20:10.383Z,15.18
2018-11-06T01:22:42.451Z,15.72
2018-11-06T01:25:14.983Z,16.37
2018-11-06T01:27:47.035Z,15.25
2018-11-06T01:30:20.021Z,15.20
2018-11-06T01:32:52.054Z,14.58
2018-11-06T01:35:24.079Z,13.98
2018-11-06T01:37:56.144Z,14.93
2018-11-06T01:40:28.190Z,15.60
2018-11-06T01:43:00.219Z,13.53
2018-11-06T01:45:32.231Z,14.40
2018-11-06T01:48:04.606Z,15.00
2018-11-06T01:50:36.655Z,15.40
2018-11-06T01:53:08.705Z,17.12
2018-11-06T01:55:40.720Z,14.75
2018-11-06T01:58:12.834Z,15.90
2018-11-06T02:00:44.857Z,15.43
2018-11-06T02:03:17.006Z,15.63
2018-11-06T02:05:49.071Z,15.70
2018-11-06T02:08:21.531Z,16.57
2018-11-06T02:10:53.569Z,14.65
2018-11-06T02:13:25.636Z,16.15
2018-11-06T02:15:57.675Z,14.95
2018-11-06T02:18:29.833Z,14.65
2018-11-06T02:21:01.908Z,15.48
2018-11-06T02:23:33.951Z,14.50
2018-11-06T02:26:05.984Z,16.00
2018-11-06T02:28:38.025Z,14.93
2018-11-06T02:31:10.084Z,16.23
2018-11-06T02:33:42.263Z,14.95
2018-11-06T02:36:14.259Z,16.23
2018-11-06T02:38:46.393Z,14.60
2018-11-06T02:41:18.363Z,15.53
2018-11-06T02:43:50.455Z,13.98
2018-11-06T02:46:22.455Z,14.83
2018-11-06T02:48:54.443Z,14.35
2018-11-06T02:51:27.019Z,13.43
2018-11-06T02:53:59.012Z,14.38
2018-11-06T02:56:31.007Z,14.50
2018-11-06T02:59:03.071Z,13.62
2018-11-06T03:01:35.117Z,12.40
2018-11-06T03:04:07.143Z,12.65
2018-11-06T03:06:39.165Z,14.05
2018-11-06T03:09:11.207Z,13.00
2018-11-06T03:11:43.207Z,12.53
2018-11-06T03:14:15.218Z,12.35
2018-11-06T03:16:47.212Z,13.53
2018-11-06T03:19:19.178Z,13.35
2018-11-06T03:21:51.170Z,13.55
2018-11-06T03:24:23.130Z,12.23
2018-11-06T03:26:55.120Z,13.45
2018-11-06T03:29:27.099Z,12.35
2018-11-06T03:31:59.069Z,13.60
2018-11-06T03:34:31.139Z,12.63
2018-11-06T03:37:03.096Z,13.25
2018-11-06T03:39:35.187Z,13.32
2018-11-06T03:42:07.223Z,13.18
2018-11-06T03:44:39.219Z,13.65
2018-11-06T03:47:11.187Z,13.55
2018-11-06T03:49:43.162Z,12.03
2018-11-06T03:52:15.143Z,13.65
2018-11-06T03:54:47.163Z,12.33
2018-11-06T03:57:19.122Z,12.25
2018-11-06T03:59:51.096Z,11.95
2018-11-06T04:02:23.091Z,12.40
2018-11-06T04:04:55.063Z,12.20
2018-11-06T04:07:27.057Z,13.60
2018-11-06T04:09:59.050Z,13.83
2018-11-06T04:12:31.041Z,11.50
2018-11-06T04:15:03.062Z,12.15
2018-11-06T04:17:35.043Z,11.57
2018-11-06T04:20:07.347Z,12.43
2018-11-06T04:22:40.003Z,12.37
2018-11-06T04:25:12.000Z,11.35
2018-11-06T04:27:43.951Z,12.90
2018-11-06T04:30:15.927Z,12.40
2018-11-06T04:32:47.915Z,12.70
2018-11-06T04:35:19.879Z,13.28
2018-11-06T04:37:51.842Z,12.55
2018-11-06T04:40:23.847Z,12.13
2018-11-06T04:42:55.811Z,11.08
2018-11-06T04:45:27.867Z,11.63
2018-11-06T04:47:59.867Z,10.98
2018-11-06T04:50:31.906Z,11.12
2018-11-06T04:53:03.942Z,11.08
2018-11-06T04:55:35.924Z,11.48
2018-11-06T04:58:07.904Z,11.08
2018-11-06T05:00:39.880Z,11.18
2018-11-06T05:03:11.870Z,13.22
2018-11-06T05:05:43.870Z,11.85
2018-11-06T05:08:15.851Z,12.05
2018-11-06T05:10:47.877Z,11.38
2018-11-06T05:13:19.858Z,11.60
2018-11-06T05:15:51.863Z,11.10
2018-11-06T05:18:23.819Z,11.35
2018-11-06T05:20:55.799Z,11.88
2018-11-06T05:23:27.765Z,10.65
2018-11-06T05:25:59.767Z,11.50
2018-11-06T05:28:31.739Z,10.13
2018-11-06T05:31:03.786Z,10.20
2018-11-06T05:33:35.767Z,10.75
2018-11-06T05:36:07.752Z,11.30
2018-11-06T05:38:39.721Z,10.35
2018-11-06T05:41:11.746Z,10.10
2018-11-06T05:43:43.734Z,9.45
2018-11-06T05:46:15.719Z,9.98
2018-11-06T05:48:47.685Z,10.13
2018-11-06T05:51:19.654Z,10.63
2018-11-06T05:53:51.619Z,9.90
2018-11-06T05:56:23.595Z,11.22
2018-11-06T05:58:55.557Z,11.18
2018-11-06T06:01:27.680Z,11.28
2018-11-06T06:03:59.664Z,10.10
2018-11-06T06:06:31.690Z,11.15
2018-11-06T06:09:06.218Z,12.33
2018-11-06T06:11:38.195Z,11.00
2018-11-06T06:14:10.155Z,13.40
2018-11-06T06:16:42.172Z,12.50
2018-11-06T06:19:14.119Z,13.80
2018-11-06T06:21:46.322Z,11.28
2018-11-06T06:24:18.324Z,12.55
2018-11-06T06:26:50.338Z,13.58
2018-11-06T06:29:22.304Z,13.25
2018-11-06T06:31:54.275Z,14.40
2018-11-06T06:34:27.105Z,15.00
2018-11-06T06:36:59.051Z,12.75
2018-11-06T06:39:31.018Z,11.88
2018-11-06T06:42:03.032Z,13.25
2018-11-06T06:44:35.023Z,14.25
2018-11-06T06:47:07.030Z,13.32
2018-11-06T06:49:39.009Z,13.53
2018-11-06T06:52:10.970Z,14.95
2018-11-06T06:54:43.379Z,15.00
2018-11-06T06:57:16.282Z,14.13
2018-11-06T06:59:48.258Z,13.30
2018-11-06T07:02:20.236Z,13.03
2018-11-06T07:04:52.241Z,13.25
2018-11-06T07:07:24.215Z,15.35
2018-11-06T07:09:56.224Z,14.68
2018-11-06T07:12:28.207Z,13.35
2018-11-06T07:15:00.156Z,15.43
2018-11-06T07:17:32.153Z,13.70
2018-11-06T07:20:06.430Z,14.73
2018-11-06T07:22:38.480Z,15.10
2018-11-06T07:25:11.250Z,15.35
2018-11-06T07:27:44.376Z,13.68
2018-11-06T07:30:17.687Z,12.25
2018-11-06T07:32:49.663Z,14.35
2018-11-06T07:35:21.950Z,13.38
2018-11-06T07:37:54.190Z,13.38
2018-11-06T07:40:26.161Z,13.08
2018-11-06T07:42:58.126Z,12.13
2018-11-06T07:45:30.127Z,13.20
2018-11-06T07:48:02.095Z,12.80
2018-11-06T07:50:34.190Z,14.05
2018-11-06T07:53:06.045Z,12.60
2018-11-06T07:55:38.092Z,13.50
2018-11-06T07:58:10.054Z,12.90
2018-11-06T08:00:42.032Z,13.43
2018-11-06T08:03:14.097Z,12.70
2018-11-06T08:05:46.071Z,12.55
2018-11-06T08:08:18.047Z,12.82
2018-11-06T08:10:50.054Z,11.90
2018-11-06T08:13:22.107Z,12.07
2018-11-06T08:15:54.078Z,10.90
2018-11-06T08:18:26.081Z,11.70
2018-11-06T08:20:58.167Z,11.83
2018-11-06T08:23:30.178Z,12.03
2018-11-06T08:26:02.162Z,9.47
2018-11-06T08:28:34.153Z,11.10
2018-11-06T08:31:06.756Z,11.53
2018-11-06T08:33:38.182Z,10.30
2018-11-06T08:36:10.241Z,10.13
2018-11-06T08:38:42.221Z,9.50
2018-11-06T08:41:14.168Z,9.07
2018-11-06T08:43:46.118Z,8.80
2018-11-06T08:46:18.151Z,8.60
2018-11-06T08:48:50.164Z,8.27
2018-11-06T08:51:22.156Z,8.10
2018-11-06T08:53:54.175Z,8.40
2018-11-06T08:56:26.166Z,8.10
2018-11-06T08:58:58.152Z,8.23
2018-11-06T09:01:30.167Z,8.27
2018-11-06T09:04:02.130Z,8.57
2018-11-06T09:06:34.110Z,8.90
2018-11-06T09:09:07.603Z,7.30
2018-11-06T09:11:39.587Z,7.20
2018-11-06T09:14:11.594Z,8.20
2018-11-06T09:16:43.593Z,7.40
2018-11-06T09:19:15.556Z,7.30
2018-11-06T09:21:47.535Z,7.20
2018-11-06T09:24:19.500Z,7.40
2018-11-06T09:26:51.466Z,7.10
2018-11-06T09:29:23.447Z,7.17
2018-11-06T09:31:55.444Z,7.13
2018-11-06T09:34:27.430Z,6.40
2018-11-06T09:36:59.407Z,6.73
2018-11-06T09:39:31.430Z,7.40
2018-11-06T09:42:03.443Z,7.40
2018-11-06T09:44:35.445Z,7.00
2018-11-06T09:47:07.436Z,6.67
2018-11-06T09:49:39.407Z,6.70
2018-11-06T09:52:11.384Z,6.20
2018-11-06T09:54:43.412Z,5.83
2018-11-06T09:57:15.379Z,4.93
2018-11-06T09:59:47.371Z,4.73
2018-11-06T10:02:19.372Z,4.77
2018-11-06T10:04:51.417Z,4.63
2018-11-06T10:07:23.555Z,4.67
2018-11-06T10:09:55.365Z,5.10
2018-11-06T10:12:27.363Z,4.47
2018-11-06T10:14:59.342Z,5.17
2018-11-06T10:17:31.319Z,4.63
2018-11-06T10:20:04.574Z,4.20
2018-11-06T10:22:36.597Z,5.13
2018-11-06T10:25:08.599Z,4.67
2018-11-06T10:27:40.898Z,4.80
2018-11-06T10:30:15.121Z,4.37
2018-11-06T10:32:47.145Z,4.93
2018-11-06T10:35:19.147Z,4.00
2018-11-06T10:37:51.143Z,4.60
2018-11-06T10:40:23.205Z,4.50
2018-11-06T10:42:55.214Z,4.10
2018-11-06T10:45:27.211Z,4.47
2018-11-06T10:48:03.354Z,4.60
2018-11-06T10:50:35.502Z,4.50
2018-11-06T10:53:07.472Z,4.53
2018-11-06T10:55:39.444Z,4.87
2018-11-06T10:58:11.529Z,4.67
2018-11-06T11:00:49.134Z,5.33
2018-11-06T11:03:26.844Z,5.30
2018-11-06T11:05:58.833Z,4.70
2018-11-06T11:08:30.878Z,4.73
2018-11-06T11:11:02.844Z,4.70
2018-11-06T11:13:34.822Z,5.77
2018-11-06T11:16:06.826Z,4.63
2018-11-06T11:18:38.788Z,5.00
2018-11-06T11:21:10.766Z,4.87
2018-11-06T11:23:42.762Z,5.60
2018-11-06T11:26:14.772Z,4.90
2018-11-06T11:28:46.747Z,4.50
2018-11-06T11:31:18.746Z,4.67
2018-11-06T11:33:50.740Z,4.63
2018-11-06T11:36:22.766Z,4.80
2018-11-06T11:38:54.746Z,4.70
2018-11-06T11:41:27.291Z,4.40
2018-11-06T11:43:59.253Z,4.00
2018-11-06T11:46:31.257Z,3.93
2018-11-06T11:49:03.259Z,3.90
2018-11-06T11:51:35.281Z,3.63
2018-11-06T11:54:07.326Z,4.00
2018-11-06T11:56:39.302Z,3.90
2018-11-06T11:59:11.311Z,3.80
2018-11-06T12:01:43.318Z,3.90
2018-11-06T12:04:15.314Z,4.43
2018-11-06T12:06:49.434Z,4.27
2018-11-06T12:09:21.408Z,4.23
2018-11-06T12:11:53.397Z,3.00
2018-11-06T12:14:25.390Z,3.00
2018-11-06T12:16:57.408Z,3.73
2018-11-06T12:19:29.391Z,3.47
2018-11-06T12:22:01.407Z,3.10
2018-11-06T12:24:33.560Z,3.20
2018-11-06T12:27:05.486Z,3.17
2018-11-06T12:29:37.522Z,3.47
2018-11-06T12:32:09.573Z,3.47
2018-11-06T12:34:41.527Z,2.90
2018-11-06T12:37:13.519Z,3.13
2018-11-06T12:39:45.719Z,3.53
2018-11-06T12:42:17.728Z,3.10
2018-11-06T12:44:49.724Z,3.20
2018-11-06T12:47:21.758Z,4.00
2018-11-06T12:49:54.257Z,2.80
2018-11-06T12:52:26.227Z,3.70
2018-11-06T12:54:58.207Z,3.50
2018-11-06T12:57:30.245Z,3.47
2018-11-06T13:00:02.228Z,2.83
2018-11-06T13:02:34.198Z,2.90
2018-11-06T13:05:06.440Z,3.07
2018-11-06T13:07:40.168Z,2.80
2018-11-06T13:10:12.947Z,3.17
2018-11-06T13:12:44.974Z,2.63
2018-11-06T13:15:17.869Z,3.03
2018-11-06T13:17:49.006Z,3.30
2018-11-06T13:20:21.020Z,3.20
2018-11-06T13:22:53.043Z,3.27
2018-11-06T13:25:25.134Z,3.20
2018-11-06T13:27:57.139Z,3.03
2018-11-06T13:30:29.149Z,3.50
2018-11-06T13:33:01.177Z,3.47
2018-11-06T13:35:33.207Z,3.10
2018-11-06T13:38:05.293Z,3.13
2018-11-06T13:40:37.366Z,2.70
2018-11-06T13:43:09.429Z,3.83
2018-11-06T13:45:41.663Z,3.50
2018-11-06T13:48:13.480Z,3.13
2018-11-06T13:50:45.506Z,3.00
2018-11-06T13:53:17.519Z,2.73
2018-11-06T13:55:49.569Z,3.17
2018-11-06T13:58:21.687Z,2.57
2018-11-06T14:00:53.703Z,3.77
2018-11-06T14:03:25.730Z,3.37
2018-11-06T14:05:57.747Z,2.73
2018-11-06T14:11:21.097Z,3.00
2018-11-06T14:13:53.075Z,3.70
2018-11-06T14:16:25.039Z,3.23
2018-11-06T14:18:57.028Z,3.17
2018-11-06T14:21:29.011Z,3.30
2018-11-06T14:24:01.461Z,3.40
2018-11-06T14:29:40.874Z,3.43
2018-11-06T14:32:12.974Z,3.80
2018-11-06T14:34:45.191Z,3.60
2018-11-06T14:45:56.921Z,3.00
2018-11-06T14:48:29.292Z,7.23
2018-11-06T14:51:02.483Z,7.63
2018-11-06T14:53:34.679Z,7.90
2018-11-06T14:56:08.100Z,8.50
2018-11-06T14:58:40.173Z,7.83
2018-11-06T15:01:12.516Z,8.60
2018-11-06T15:03:44.641Z,9.27
2018-11-06T15:06:16.784Z,9.50
2018-11-06T15:08:50.435Z,8.93
2018-11-06T15:11:22.551Z,11.37
2018-11-06T15:13:54.827Z,9.83
2018-11-06T15:16:28.155Z,10.37
2018-11-06T15:19:00.372Z,10.40
2018-11-06T15:21:32.475Z,11.47
2018-11-06T15:24:04.635Z,12.10
2018-11-06T15:26:36.806Z,11.50
2018-11-06T15:29:09.059Z,12.50
2018-11-06T15:31:41.797Z,11.57
2018-11-06T15:34:13.976Z,11.80
2018-11-06T15:36:46.090Z,12.27
2018-11-06T15:39:18.310Z,12.40
2018-11-06T15:41:50.559Z,13.00
2018-11-06T15:44:22.650Z,12.93
2018-11-06T15:46:55.128Z,12.57
2018-11-06T15:49:27.470Z,12.47
2018-11-06T15:52:00.025Z,13.60
2018-11-06T15:54:34.363Z,13.77
2018-11-06T15:57:06.553Z,13.40
2018-11-06T15:59:38.723Z,13.13
2018-11-06T16:02:11.873Z,14.03
2018-11-06T16:04:44.121Z,13.90
2018-11-06T16:07:16.357Z,15.53
2018-11-06T16:09:48.496Z,13.30
2018-11-06T16:12:20.712Z,14.93
2018-11-06T16:14:52.804Z,14.77
2018-11-06T16:17:24.970Z,15.47
2018-11-06T16:19:58.045Z,15.43
2018-11-06T16:22:30.240Z,15.50
2018-11-06T16:25:02.312Z,15.57
2018-11-06T16:27:34.582Z,13.67
2018-11-06T16:30:08.271Z,15.30
2018-11-06T16:32:40.448Z,15.70
2018-11-06T16:35:13.731Z,14.73
2018-11-06T16:37:46.100Z,15.50
2018-11-06T16:40:18.679Z,13.97
2018-11-06T16:42:50.704Z,15.13
2018-11-06T16:45:22.785Z,14.40
2018-11-06T16:47:54.906Z,16.63
2018-11-06T16:50:27.981Z,15.33
2018-11-06T16:53:00.018Z,15.20
2018-11-06T16:55:32.112Z,15.70
2018-11-06T16:58:04.164Z,16.47
2018-11-06T17:00:36.259Z,17.37
2018-11-06T17:03:08.313Z,17.37
2018-11-06T17:05:40.477Z,16.30
2018-11-06T17:08:12.560Z,17.93
2018-11-06T17:10:44.669Z,17.63
2018-11-06T17:13:16.776Z,17.27
2018-11-06T17:15:48.868Z,17.77
2018-11-06T17:18:20.972Z,16.33
2018-11-06T17:20:53.071Z,17.97
2018-11-06T17:23:25.208Z,19.20
2018-11-06T17:25:57.277Z,17.37
2018-11-06T17:28:29.441Z,19.47
2018-11-06T17:31:01.572Z,17.00
2018-11-06T17:33:33.650Z,17.40
2018-11-06T17:36:05.810Z,17.10
2018-11-06T17:38:38.122Z,19.43
2018-11-06T17:41:12.860Z,18.50
2018-11-06T17:43:45.032Z,18.03
2018-11-06T17:46:17.188Z,17.77
2018-11-06T17:48:49.229Z,18.07
2018-11-06T17:51:21.443Z,17.67
2018-11-06T17:53:53.987Z,17.50
2018-11-06T17:56:26.297Z,18.13
2018-11-06T17:58:58.499Z,20.27
2018-11-06T18:01:30.644Z,19.40
2018-11-06T18:04:02.814Z,18.33
2018-11-06T18:06:34.810Z,19.17
2018-11-06T18:09:09.868Z,18.60
2018-11-06T18:11:41.967Z,18.03
2018-11-06T18:14:14.061Z,19.50
2018-11-06T18:16:46.221Z,19.20
2018-11-06T18:19:18.375Z,19.30
2018-11-06T18:21:51.172Z,19.57
2018-11-06T18:24:23.294Z,17.80
2018-11-06T18:26:55.370Z,21.97
2018-11-06T18:29:27.605Z,21.20
2018-11-06T18:32:01.475Z,20.70
2018-11-06T18:34:35.669Z,21.03
2018-11-06T18:37:07.817Z,20.47
2018-11-06T18:39:41.993Z,21.80
2018-11-06T18:42:14.198Z,19.97
2018-11-06T18:44:46.424Z,19.17
2018-11-06T18:47:18.776Z,19.97
2018-11-06T18:49:50.997Z,20.70
2018-11-06T18:52:23.087Z,22.80
2018-11-06T18:54:58.157Z,21.17
2018-11-06T18:57:31.741Z,22.20
2018-11-06T19:00:11.579Z,21.10
2018-11-06T19:02:46.657Z,23.83
2018-11-06T19:05:19.705Z,21.60
2018-11-06T19:07:51.924Z,22.50
2018-11-06T19:10:24.214Z,22.90
2018-11-06T19:12:59.422Z,22.73
2018-11-06T19:15:31.980Z,19.83
2018-11-06T19:18:05.002Z,21.50
2018-11-06T19:20:37.216Z,20.67
2018-11-06T19:23:09.316Z,21.12
2018-11-06T19:25:41.476Z,21.90
2018-11-06T19:28:13.643Z,23.35
2018-11-06T19:30:45.723Z,21.40
2018-11-06T19:33:20.261Z,22.10
2018-11-06T19:35:52.400Z,22.77
2018-11-06T19:38:27.922Z,20.80
2018-11-06T19:41:00.400Z,21.57
2018-11-06T19:43:32.670Z,22.30
2018-11-06T19:46:04.843Z,21.12
2018-11-06T19:48:36.952Z,23.10
2018-11-06T19:51:09.152Z,22.02
2018-11-06T19:53:41.436Z,20.65
2018-11-06T19:56:13.461Z,22.20
2018-11-06T19:58:45.709Z,21.23
2018-11-06T20:01:17.873Z,21.33
2018-11-06T20:03:50.034Z,23.00
2018-11-06T20:06:22.190Z,21.80
2018-11-06T20:08:54.336Z,22.15
2018-11-06T20:11:26.508Z,22.15
2018-11-06T20:13:58.729Z,21.12
2018-11-06T20:16:30.945Z,21.50
2018-11-06T20:19:03.397Z,21.33
2018-11-06T20:21:35.716Z,21.05
2018-11-06T20:24:07.876Z,23.15
2018-11-06T20:26:39.942Z,22.40
2018-11-06T20:29:12.097Z,22.42
2018-11-06T20:31:44.192Z,21.50
2018-11-06T20:34:16.304Z,22.17
2018-11-06T20:36:48.507Z,22.10
2018-11-06T20:39:20.679Z,21.52
2018-11-06T20:41:52.795Z,21.30
2018-11-06T20:44:25.009Z,22.10
2018-11-06T20:46:57.137Z,22.95
2018-11-06T20:49:29.287Z,22.82
2018-11-06T20:52:01.380Z,22.65
2018-11-06T20:54:33.600Z,21.12
2018-11-06T20:57:05.715Z,24.60
2018-11-06T20:59:37.845Z,24.57
2018-11-06T21:02:10.216Z,21.48
2018-11-06T21:04:42.363Z,23.92
2018-11-06T21:07:14.466Z,22.87
2018-11-06T21:09:46.578Z,22.20
2018-11-06T21:12:18.683Z,23.83
2018-11-06T21:14:50.765Z,22.20
2018-11-06T21:17:22.832Z,24.10
2018-11-06T21:19:54.929Z,23.30
2018-11-06T21:22:27.503Z,22.65
2018-11-06T21:24:59.575Z,23.18
2018-11-06T21:27:31.841Z,22.30
2018-11-06T21:30:05.946Z,22.45
2018-11-06T21:32:38.987Z,22.48
2018-11-06T21:35:11.262Z,23.75
2018-11-06T21:37:43.302Z,22.42
2018-11-06T21:40:18.823Z,23.83
2018-11-06T21:42:51.078Z,23.12
2018-11-06T21:45:23.251Z,21.48
2018-11-06T21:47:55.670Z,22.82
2018-11-06T21:50:27.981Z,22.02
2018-11-06T21:53:00.327Z,23.70
2018-11-06T21:55:32.747Z,22.62
2018-11-06T21:58:05.213Z,23.80
2018-11-06T22:00:37.559Z,23.12
2018-11-06T22:03:09.652Z,20.97
2018-11-06T22:05:41.770Z,20.77
2018-11-06T22:08:14.125Z,22.00
2018-11-06T22:10:46.425Z,21.57
2018-11-06T22:13:18.660Z,22.70
2018-11-06T22:15:50.738Z,21.73
2018-11-06T22:18:22.891Z,21.70
2018-11-06T22:20:54.979Z,21.73
2018-11-06T22:23:27.365Z,21.77
2018-11-06T22:26:00.635Z,23.27
2018-11-06T22:28:32.712Z,22.58
2018-11-06T22:31:05.276Z,22.52
2018-11-06T22:33:37.430Z,21.95
2018-11-06T22:36:09.550Z,23.87
2018-11-06T22:38:41.585Z,23.32
2018-11-06T22:41:13.941Z,24.25
2018-11-06T22:43:45.983Z,23.95
2018-11-06T22:46:18.236Z,22.27
2018-11-06T22:48:50.490Z,22.48
2018-11-06T22:51:22.552Z,21.45
2018-11-06T22:53:55.684Z,22.27
2018-11-06T22:56:27.732Z,22.13
2018-11-06T22:58:59.827Z,22.40
2018-11-06T23:01:32.966Z,23.60
2018-11-06T23:04:05.091Z,23.42
2018-11-06T23:06:37.219Z,23.10
2018-11-06T23:09:10.854Z,20.37
2018-11-06T23:11:44.258Z,21.68
2018-11-06T23:14:16.520Z,20.72
2018-11-06T23:16:48.678Z,24.63
2018-11-06T23:19:20.732Z,21.30
2018-11-06T23:21:52.864Z,21.65
2018-11-06T23:24:24.987Z,22.95
2018-11-06T23:26:57.176Z,21.65
2018-11-06T23:29:29.271Z,22.98
2018-11-06T23:32:01.805Z,22.02
2018-11-06T23:34:33.904Z,19.98
2018-11-06T23:37:06.025Z,20.95
2018-11-06T23:39:38.089Z,21.90
2018-11-06T23:42:10.184Z,21.20
2018-11-06T23:44:42.578Z,23.25
2018-11-06T23:47:14.729Z,22.10
2018-11-06T23:49:46.804Z,22.52
2018-11-06T23:52:18.883Z,22.25
2018-11-06T23:54:50.947Z,21.77
2018-11-06T23:57:23.012Z,21.25
2018-11-06T23:59:55.148Z,20.72
